Another Hard Day at the Office Weather Stats

 
 
 

High monthly outside Temperature, 22.8 , C
Low monthly outside Temperature, -1.0 , C
High yearly outside Temperature, 30.9 , C
Low yearly outside Temperature, -2.2 , C

Low monthly barometer, 1001.1 , mb
High monthly barometer, 1028.0 , mb
Low yearly barometer, 975.0 , mb
High yearly barometer 1041.1 , mb

High wind speed, 25.0 , mph
Time of High wind speed, 21:37 , mph
High monthly wind speed, 47.0 , mph
High yearly wind speed, 55.0 , mph

 

 




3126
                    Temp     Hi    Low   Out    Dew  Wind  Wind   Wind    Hi    Hi   Wind   Heat    THW                Rain    Heat    Cool    In     In    In     In     In   In Air  Wind  Wind    ISS   Arc.
  Date    Time     Out   Temp   Temp   Hum    Pt. Speed   Dir    Run Speed   Dir  Chill  Index  Index   Bar    Rain  Rate    D-D     D-D    Temp   Hum    Dew   Heat    EMC Density  Samp   Tx   Recept  Int.
---------------------------------------------------------------------------------------------------------------------------------------------------------------------------------------------------------------
 1/05/16   0:05    5.8    5.8    5.8    79    2.4   5.0     N   0.42   6.0     N    4.1    5.6    3.9  1026.0  0.00  0.00   0.044   0.000   25.2    37    9.4   24.6   7.20  .0740    114    1    100.0    5 
 1/05/16   0:10    5.8    5.8    5.8    79    2.4   4.0     N   0.33   6.0   NNW    4.5    5.6    4.3  1026.0  0.00  0.00   0.044   0.000   25.2    37    9.4   24.6   7.20  .0740    117    1    100.0    5 
 1/05/16   0:15    5.7    5.8    5.7    79    2.4   4.0   NNW   0.33   6.0     N    4.4    5.6    4.3  1026.1  0.00  0.00   0.044   0.000   25.1    37    9.4   24.6   7.21  .0740    116    1    100.0    5 
 1/05/16   0:20    5.7    5.7    5.7    79    2.3   4.0     N   0.33   7.0     N    4.3    5.5    4.2  1026.0  0.00  0.00   0.044   0.000   25.1    37    9.4   24.6   7.21  .0740    116    1    100.0    5 
 1/05/16   0:25    5.7    5.7    5.7    79    2.3   4.0     N   0.33   7.0     N    4.3    5.5    4.2  1026.1  0.00  0.00   0.044   0.000   25.1    37    9.4   24.6   7.21  .0740    117    1    100.0    5 
 1/05/16   0:30    5.6    5.7    5.6    79    2.3   4.0     N   0.33   6.0     N    4.3    5.4    4.1  1026.1  0.00  0.00   0.044   0.000   25.1    37    9.3   24.6   7.21  .0740    117    1    100.0    5 
 1/05/16   0:35    5.6    5.6    5.6    79    2.2   4.0     N   0.33   6.0     N    4.2    5.4    4.1  1026.1  0.00  0.00   0.044   0.000   25.0    37    9.3   24.5   7.21  .0740    117    1    100.0    5 
 1/05/16   0:40    5.6    5.6    5.6    80    2.4   5.0   NNW   0.42   7.0   NNW    3.8    5.4    3.6  1026.1  0.00  0.00   0.044   0.000   25.0    37    9.3   24.5   7.21  .0740    117    1    100.0    5 
 1/05/16   0:45    5.6    5.6    5.5    80    2.4   5.0   NNW   0.42   8.0   NNW    3.8    5.4    3.6  1026.1  0.00  0.00   0.044   0.000   25.0    37    9.3   24.5   7.21  .0740    117    1    100.0    5 
 1/05/16   0:50    5.6    5.6    5.5    80    2.4   5.0     N   0.42   8.0     N    3.8    5.4    3.6  1026.2  0.00  0.00   0.044   0.000   24.9    37    9.2   24.4   7.21  .0741    117    1    100.0    5 
 1/05/16   0:55    5.6    5.6    5.5    80    2.4   5.0     N   0.42   7.0     N    3.8    5.4    3.6  1026.1  0.00  0.00   0.044   0.000   24.9    36    8.8   24.3   7.01  .0741    117    1    100.0    5 
 1/05/16   1:00    5.5    5.6    5.5    80    2.3   5.0   NNW   0.42   8.0     N    3.7    5.3    3.6  1026.1  0.00  0.00   0.045   0.000   24.9    36    8.8   24.3   7.01  .0741    117    1    100.0    5 
 1/05/16   1:05    5.5    5.6    5.5    80    2.3   4.0   NNW   0.33   6.0   NNW    4.2    5.3    4.0  1026.2  0.00  0.00   0.045   0.000   24.8    36    8.7   24.3   7.02  .0741    117    1    100.0    5 
 1/05/16   1:10    5.5    5.5    5.4    80    2.3   4.0     N   0.33   6.0     N    4.2    5.3    4.0  1026.2  0.00  0.00   0.045   0.000   24.8    36    8.7   24.3   7.02  .0741    117    1    100.0    5 
 1/05/16   1:15    5.4    5.5    5.4    80    2.3   3.0     N   0.25   5.0     N    4.7    5.3    4.5  1026.3  0.00  0.00   0.045   0.000   24.8    36    8.7   24.2   7.02  .0741    118    1    100.0    5 
 1/05/16   1:20    5.4    5.4    5.4    80    2.2   3.0     N   0.25   5.0     N    4.6    5.2    4.4  1026.2  0.00  0.00   0.045   0.000   24.8    36    8.7   24.2   7.02  .0741    116    1    100.0    5 
 1/05/16   1:25    5.3    5.4    5.3    80    2.2   4.0     N   0.33   6.0     N    4.0    5.2    3.8  1026.2  0.00  0.00   0.045   0.000   24.7    36    8.6   24.1   7.02  .0741    117    1    100.0    5 
 1/05/16   1:30    5.2    5.3    5.2    80    2.1   4.0     N   0.33   6.0   NNW    3.8    5.1    3.7  1026.2  0.00  0.00   0.046   0.000   24.7    36    8.6   24.1   7.02  .0742    116    1    100.0    5 
 1/05/16   1:35    5.2    5.3    5.2    80    2.1   4.0     N   0.33   6.0     N    3.8    5.1    3.7  1026.2  0.00  0.00   0.046   0.000   24.7    36    8.6   24.1   7.02  .0742    116    1    100.0    5 
 1/05/16   1:40    5.2    5.2    5.2    80    2.0   4.0     N   0.33   6.0     N    3.8    5.0    3.6  1026.3  0.00  0.00   0.046   0.000   24.7    36    8.6   24.1   7.02  .0742    116    1    100.0    5 
 1/05/16   1:45    5.2    5.2    5.2    80    2.0   4.0     N   0.33   6.0     N    3.8    5.0    3.6  1026.2  0.00  0.00   0.046   0.000   24.6    36    8.5   24.0   7.02  .0742    115    1    100.0    5 
 1/05/16   1:50    5.1    5.2    5.1    80    1.9   4.0     N   0.33   7.0   NNW    3.7    4.9    3.6  1026.3  0.00  0.00   0.046   0.000   24.6    36    8.5   24.0   7.02  .0742    117    1    100.0    5 
 1/05/16   1:55    5.1    5.1    5.1    80    1.9   5.0     N   0.42   6.0     N    3.2    4.9    3.1  1026.2  0.00  0.00   0.046   0.000   24.6    36    8.5   23.9   7.03  .0742    115    1    100.0    5 
 1/05/16   2:00    5.1    5.1    5.1    80    1.9   4.0     N   0.33   5.0     N    3.7    4.9    3.5  1026.2  0.00  0.00   0.046   0.000   24.5    36    8.4   23.9   7.03  .0742    116    1    100.0    5 
 1/05/16   2:05    5.1    5.1    5.1    80    1.9   4.0     N   0.33   6.0     N    3.7    4.9    3.5  1026.4  0.00  0.00   0.046   0.000   24.4    36    8.4   23.8   7.03  .0742    117    1    100.0    5 
 1/05/16   2:10    4.9    5.1    4.9    80    1.8   4.0     N   0.33   6.0     N    3.6    4.8    3.4  1026.4  0.00  0.00   0.046   0.000   24.4    36    8.4   23.8   7.03  .0742    115    1    100.0    5 
 1/05/16   2:15    4.9    5.0    4.9    80    1.8   5.0     N   0.42   7.0   NNW    3.1    4.8    2.9  1026.5  0.00  0.00   0.046   0.000   24.4    36    8.4   23.8   7.03  .0742    117    1    100.0    5 
 1/05/16   2:20    4.9    4.9    4.9    81    2.0   5.0     N   0.42   7.0     N    3.1    4.8    2.9  1026.5  0.00  0.00   0.046   0.000   24.4    36    8.3   23.8   7.03  .0743    116    1    100.0    5 
 1/05/16   2:25    4.9    4.9    4.9    81    2.0   5.0     N   0.42   7.0   NNW    3.1    4.8    2.9  1026.5  0.00  0.00   0.046   0.000   24.3    36    8.3   23.7   7.03  .0743    117    1    100.0    5 
 1/05/16   2:30    4.9    4.9    4.9    81    2.0   5.0     N   0.42   7.0     N    3.1    4.8    2.9  1026.5  0.00  0.00   0.046   0.000   24.3    36    8.2   23.7   7.04  .0743    117    1    100.0    5 
 1/05/16   2:35    4.9    5.0    4.9    81    2.0   5.0     N   0.42   7.0     N    3.1    4.8    2.9  1026.5  0.00  0.00   0.046   0.000   24.3    36    8.2   23.7   7.04  .0743    116    1    100.0    5 
 1/05/16   2:40    5.0    5.0    4.9    81    2.0   5.0     N   0.42   7.0     N    3.1    4.8    2.9  1026.5  0.00  0.00   0.046   0.000   24.2    36    8.2   23.6   7.04  .0743    117    1    100.0    5 
 1/05/16   2:45    5.1    5.1    5.0    81    2.1   5.0     N   0.42   8.0   NNW    3.2    4.9    3.0  1026.5  0.00  0.00   0.046   0.000   24.2    36    8.2   23.6   7.04  .0743    117    1    100.0    5 
 1/05/16   2:50    5.1    5.1    5.1    81    2.1   5.0     N   0.42   8.0   NNW    3.2    4.9    3.0  1026.5  0.00  0.00   0.046   0.000   24.2    36    8.1   23.6   7.04  .0743    117    1    100.0    5 
 1/05/16   2:55    5.1    5.1    5.1    81    2.1   4.0     N   0.33   7.0     N    3.7    4.9    3.6  1026.5  0.00  0.00   0.046   0.000   24.2    35    7.7   23.5   6.94  .0744    116    1    100.0    5 
 1/05/16   3:00    5.1    5.1    5.1    81    2.1   3.0     N   0.25   4.0     N    4.2    4.9    4.1  1026.5  0.00  0.00   0.046   0.000   24.1    36    8.1   23.5   7.04  .0743    116    1    100.0    5 
 1/05/16   3:05    5.0    5.1    5.0    81    2.0   3.0     N   0.25   4.0     N    4.2    4.8    4.0  1026.5  0.00  0.00   0.046   0.000   24.1    35    7.6   23.4   6.94  .0744    117    1    100.0    5 
 1/05/16   3:10    4.9    5.0    4.9    81    2.0   3.0     N   0.25   5.0     N    4.1    4.8    3.9  1026.5  0.00  0.00   0.046   0.000   24.0    35    7.6   23.3   6.95  .0744    116    1    100.0    5 
 1/05/16   3:15    4.8    4.9    4.8    81    1.8   3.0     N   0.25   5.0     N    4.0    4.7    3.8  1026.6  0.00  0.00   0.047   0.000   24.0    35    7.6   23.3   6.95  .0744    117    1    100.0    5 
 1/05/16   3:20    4.8    4.8    4.8    81    1.8   3.0     N   0.25   5.0     N    3.9    4.6    3.8  1026.5  0.00  0.00   0.047   0.000   23.9    35    7.5   23.3   6.95  .0744    116    1    100.0    5 
 1/05/16   3:25    4.7    4.8    4.7    81    1.7   3.0     N   0.25   5.0   NNE    3.9    4.6    3.7  1026.5  0.00  0.00   0.047   0.000   23.9    35    7.5   23.3   6.95  .0744    118    1    100.0    5 
 1/05/16   3:30    4.7    4.7    4.7    81    1.7   3.0     N   0.25   4.0     N    3.8    4.5    3.6  1026.5  0.00  0.00   0.047   0.000   23.9    35    7.5   23.2   6.95  .0744    117    1    100.0    5 
 1/05/16   3:35    4.6    4.7    4.6    81    1.6   4.0   NNE   0.33   5.0   NNE    3.2    4.4    3.0  1026.5  0.00  0.00   0.048   0.000   23.9    35    7.5   23.2   6.95  .0744    117    1    100.0    5 
 1/05/16   3:40    4.6    4.6    4.6    82    1.7   4.0   NNE   0.33   6.0   NNE    3.1    4.4    2.9  1026.5  0.00  0.00   0.048   0.000   23.8    35    7.4   23.2   6.95  .0744    116    1    100.0    5 
 1/05/16   3:45    4.6    4.6    4.6    82    1.7   5.0   NNE   0.42   6.0   NNE    2.6    4.4    2.4  1026.5  0.00  0.00   0.048   0.000   23.8    35    7.4   23.1   6.95  .0745    115    1    100.0    5 
 1/05/16   3:50    4.5    4.6    4.5    82    1.7   4.0     N   0.33   6.0     N    3.0    4.3    2.8  1026.5  0.00  0.00   0.048   0.000   23.8    35    7.4   23.1   6.95  .0745    117    1    100.0    5 
 1/05/16   3:55    4.5    4.6    4.5    82    1.7   4.0     N   0.33   7.0     N    3.0    4.3    2.8  1026.6  0.00  0.00   0.048   0.000   23.7    35    7.3   23.1   6.96  .0745    115    1    100.0    5 
 1/05/16   4:00    4.4    4.5    4.4    82    1.6   4.0     N   0.33   6.0     N    2.9    4.3    2.8  1026.7  0.00  0.00   0.048   0.000   23.7    35    7.3   23.1   6.96  .0745    117    1    100.0    5 
 1/05/16   4:05    4.4    4.4    4.4    82    1.6   3.0     N   0.25   5.0     N    3.6    4.3    3.4  1026.7  0.00  0.00   0.048   0.000   23.7    35    7.3   23.0   6.96  .0745    115    1    100.0    5 
 1/05/16   4:10    4.3    4.4    4.3    82    1.5   3.0     N   0.25   5.0     N    3.4    4.2    3.2  1026.6  0.00  0.00   0.049   0.000   23.6    35    7.2   22.9   6.96  .0745    117    1    100.0    5 
 1/05/16   4:15    4.3    4.3    4.3    82    1.5   3.0     N   0.25   4.0     N    3.3    4.1    3.2  1026.7  0.00  0.00   0.049   0.000   23.6    35    7.2   22.9   6.96  .0745    117    1    100.0    5 
 1/05/16   4:20    4.2    4.3    4.2    82    1.4   3.0     N   0.25   4.0     N    3.3    4.1    3.1  1026.8  0.00  0.00   0.049   0.000   23.6    35    7.2   22.8   6.96  .0746    115    1    100.0    5 
 1/05/16   4:25    4.2    4.2    4.2    82    1.4   4.0     N   0.33   5.0   NNE    2.6    4.0    2.4  1026.8  0.00  0.00   0.049   0.000   23.6    35    7.2   22.8   6.96  .0746    117    1    100.0    5 
 1/05/16   4:30    4.1    4.2    4.1    82    1.3   4.0     N   0.33   6.0     N    2.6    3.9    2.4  1026.7  0.00  0.00   0.049   0.000   23.5    35    7.1   22.8   6.96  .0746    118    1    100.0    5 
 1/05/16   4:35    4.1    4.1    4.1    82    1.3   3.0     N   0.25   6.0     N    3.2    3.9    3.0  1026.8  0.00  0.00   0.049   0.000   23.4    35    7.1   22.7   6.97  .0746    117    1    100.0    5 
 1/05/16   4:40    4.1    4.1    4.1    83    1.5   2.0     W   0.17   3.0     N    3.9    4.0    3.8  1026.8  0.00  0.00   0.049   0.000   23.4    35    7.1   22.7   6.97  .0746    116    1    100.0    5 
 1/05/16   4:45    4.2    4.2    4.1    83    1.6   3.0   WSW   0.25   5.0   WSW    3.3    4.1    3.2  1026.9  0.00  0.00   0.049   0.000   23.4    35    7.1   22.7   6.97  .0746    117    1    100.0    5 
 1/05/16   4:50    4.2    4.3    4.2    83    1.6   3.0     W   0.25   4.0   WSW    3.3    4.1    3.2  1026.9  0.00  0.00   0.049   0.000   23.4    35    7.1   22.7   6.97  .0746    117    1    100.0    5 
 1/05/16   4:55    4.1    4.2    4.1    83    1.5   2.0     W   0.17   3.0     W    3.9    4.0    3.8  1027.0  0.00  0.00   0.049   0.000   23.3    35    7.0   22.6   6.97  .0746    115    1    100.0    5 
 1/05/16   5:00    4.0    4.1    4.0    83    1.4   1.0     W   0.08   3.0     W    4.0    3.9    3.9  1027.0  0.00  0.00   0.050   0.000   23.3    35    7.0   22.6   6.97  .0746    117    1    100.0    5 
 1/05/16   5:05    3.9    4.0    3.9    83    1.3   0.0   ---   0.00   0.0   ---    3.9    3.8    3.8  1027.0  0.00  0.00   0.050   0.000   23.3    35    7.0   22.6   6.97  .0747    116    1    100.0    5 
 1/05/16   5:10    3.9    3.9    3.9    83    1.3   0.0     W   0.00   1.0     W    3.9    3.8    3.8  1027.1  0.00  0.00   0.050   0.000   23.3    35    7.0   22.6   6.97  .0747    116    1    100.0    5 
 1/05/16   5:15    3.8    3.9    3.8    83    1.2   0.0   ---   0.00   0.0   ---    3.8    3.7    3.7  1027.0  0.00  0.00   0.050   0.000   23.2    35    6.9   22.4   6.97  .0747    115    1    100.0    5 
 1/05/16   5:20    3.8    3.8    3.8    83    1.2   0.0   ---   0.00   0.0   ---    3.8    3.7    3.7  1027.1  0.00  0.00   0.051   0.000   23.2    35    6.9   22.4   6.97  .0747    116    1    100.0    5 
 1/05/16   5:25    3.7    3.8    3.7    83    1.0   0.0   ---   0.00   0.0   ---    3.7    3.6    3.6  1027.2  0.00  0.00   0.051   0.000   23.2    35    6.9   22.3   6.98  .0747    117    1    100.0    5 
 1/05/16   5:30    3.7    3.7    3.7    83    1.0   0.0   ---   0.00   0.0   ---    3.7    3.6    3.6  1027.2  0.00  0.00   0.051   0.000   23.1    35    6.8   22.3   6.98  .0747    117    1    100.0    5 
 1/05/16   5:35    3.6    3.7    3.6    83    0.9   0.0   ---   0.00   0.0   ---    3.6    3.4    3.4  1027.2  0.00  0.00   0.051   0.000   23.1    35    6.8   22.3   6.98  .0747    116    1    100.0    5 
 1/05/16   5:40    3.5    3.6    3.5    83    0.9   1.0     W   0.08   3.0     W    3.5    3.4    3.4  1027.2  0.00  0.00   0.052   0.000   23.1    35    6.8   22.2   6.98  .0747    117    1    100.0    5 
 1/05/16   5:45    3.5    3.5    3.4    84    1.0   3.0     W   0.25   4.0     W    2.4    3.4    2.3  1027.3  0.00  0.00   0.052   0.000   23.0    35    6.7   22.1   6.98  .0748    117    1    100.0    5 
 1/05/16   5:50    3.5    3.5    3.4    84    1.0   2.0   WNW   0.17   4.0     W    3.3    3.4    3.2  1027.3  0.00  0.00   0.052   0.000   23.0    35    6.7   22.1   6.98  .0748    117    1    100.0    5 
 1/05/16   5:55    3.4    3.5    3.4    85    1.2   3.0    NW   0.25   4.0   WNW    2.4    3.3    2.3  1027.3  0.00  0.00   0.052   0.000   22.9    35    6.7   22.1   6.98  .0748    117    1    100.0    5 
 1/05/16   6:00    3.4    3.4    3.4    85    1.2   3.0    NW   0.25   5.0   WNW    2.4    3.3    2.3  1027.3  0.00  0.00   0.052   0.000   22.9    35    6.7   22.1   6.98  .0748    117    1    100.0    5 
 1/05/16   6:05    3.4    3.4    3.4    85    1.1   3.0    NW   0.25   5.0    NW    2.3    3.3    2.2  1027.3  0.00  0.00   0.052   0.000   22.9    35    6.6   21.9   6.99  .0748    114    1    100.0    5 
 1/05/16   6:10    3.4    3.4    3.3    85    1.1   4.0    NW   0.33   5.0    NW    1.7    3.3    1.6  1027.4  0.00  0.00   0.052   0.000   22.8    35    6.6   21.8   6.99  .0748    116    1    100.0    5 
 1/05/16   6:15    3.4    3.4    3.3    85    1.1   4.0    NW   0.33   5.0    NW    1.7    3.3    1.6  1027.5  0.00  0.00   0.052   0.000   22.8    35    6.6   21.8   6.99  .0748    117    1    100.0    5 
 1/05/16   6:20    3.4    3.4    3.3    85    1.1   3.0    NW   0.25   5.0    NW    2.3    3.3    2.2  1027.5  0.00  0.00   0.052   0.000   22.8    35    6.5   21.8   6.99  .0748    117    1    100.0    5 
 1/05/16   6:25    3.4    3.4    3.4    86    1.3   2.0    NW   0.17   3.0    NW    3.2    3.3    3.1  1027.6  0.00  0.00   0.052   0.000   22.8    35    6.5   21.8   6.99  .0748    116    1    100.0    5 
 1/05/16   6:30    3.4    3.4    3.4    86    1.3   2.0    NW   0.17   3.0    NW    3.2    3.3    3.1  1027.6  0.00  0.00   0.052   0.000   22.7    35    6.5   21.7   6.99  .0749    117    1    100.0    5 
 1/05/16   6:35    3.4    3.4    3.4    86    1.3   1.0    NW   0.08   3.0    NW    3.4    3.3    3.3  1027.6  0.00  0.00   0.052   0.000   22.7    35    6.5   21.7   6.99  .0749    117    1    100.0    5 
 1/05/16   6:40    3.5    3.5    3.4    86    1.4   3.0    NW   0.25   4.0    NW    2.4    3.4    2.3  1027.7  0.00  0.00   0.052   0.000   22.7    35    6.4   21.6   6.99  .0749    118    1    100.0    5 
 1/05/16   6:45    3.6    3.6    3.5    87    1.6   3.0    NW   0.25   5.0    NW    2.6    3.5    2.5  1027.7  0.00  0.00   0.051   0.000   22.7    35    6.4   21.6   6.99  .0749    117    1    100.0    5 
 1/05/16   6:50    3.7    3.7    3.6    87    1.8   1.0    NW   0.08   3.0    NW    3.7    3.6    3.6  1027.8  0.00  0.00   0.051   0.000   22.7    35    6.4   21.6   6.99  .0749    117    1    100.0    5 
 1/05/16   6:55    3.8    3.8    3.7    87    1.9   1.0    NW   0.08   3.0    NW    3.8    3.7    3.7  1027.9  0.00  0.00   0.050   0.000   22.7    35    6.4   21.6   6.99  .0749    117    1    100.0    5 
 1/05/16   7:00    4.0    4.0    3.8    87    2.0   2.0    NW   0.17   3.0    NW    3.8    3.9    3.7  1027.8  0.00  0.00   0.050   0.000   22.6    35    6.4   21.5   7.00  .0749    117    1    100.0    5 
 1/05/16   7:05    4.2    4.2    4.0    87    2.2   2.0    NW   0.17   4.0    NW    4.1    4.1    3.9  1027.8  0.00  0.00   0.049   0.000   22.6    35    6.4   21.5   7.00  .0749    116    1    100.0    5 
 1/05/16   7:10    4.4    4.4    4.2    87    2.5   1.0    NW   0.08   3.0   NNW    4.4    4.3    4.3  1027.9  0.00  0.00   0.048   0.000   22.6    35    6.4   21.5   7.00  .0749    117    1    100.0    5 
 1/05/16   7:15    4.7    4.7    4.5    87    2.7   0.0    NW   0.00   2.0    NW    4.7    4.6    4.6  1028.0  0.00  0.00   0.047   0.000   22.6    35    6.4   21.5   7.00  .0749    116    1    100.0    5 
 1/05/16   7:20    4.9    4.9    4.7    87    2.9   0.0    NW   0.00   1.0    NW    4.9    4.8    4.8  1028.0  0.00  0.00   0.047   0.000   22.6    35    6.4   21.5   7.00  .0749    116    1    100.0    5 
 1/05/16   7:25    5.1    5.1    4.9    87    3.1   0.0    NW   0.00   2.0    NW    5.1    5.0    5.0  1028.0  0.00  0.00   0.046   0.000   22.6    35    6.3   21.4   7.00  .0749    116    1    100.0    5 
 1/05/16   7:30    5.4    5.4    5.1    87    3.4   1.0    NW   0.08   2.0    NW    5.4    5.3    5.3  1028.0  0.00  0.00   0.045   0.000   22.6    35    6.3   21.4   7.00  .0749    117    1    100.0    5 
 1/05/16   7:35    5.7    5.7    5.4    86    3.5   1.0    NW   0.08   2.0    NW    5.7    5.6    5.6  1028.0  0.00  0.00   0.044   0.000   22.6    35    6.3   21.4   7.00  .0749    117    1    100.0    5 
 1/05/16   7:40    6.0    6.0    5.7    86    3.8   1.0    NW   0.08   3.0    NW    6.0    5.9    5.9  1028.0  0.00  0.00   0.043   0.000   22.6    35    6.3   21.4   7.00  .0749    115    1    100.0    5 
 1/05/16   7:45    6.2    6.2    6.1    85    3.9   1.0     W   0.08   3.0     W    6.2    6.2    6.2  1028.1  0.00  0.00   0.042   0.000   22.6    35    6.3   21.4   7.00  .0749    117    1    100.0    5 
 1/05/16   7:50    6.3    6.3    6.2    85    4.0   2.0   WSW   0.17   3.0     W    6.3    6.3    6.3  1028.1  0.00  0.00   0.042   0.000   22.6    35    6.3   21.4   7.00  .0749    117    1    100.0    5 
 1/05/16   7:55    6.5    6.5    6.3    85    4.2   1.0   WSW   0.08   3.0   WSW    6.5    6.4    6.4  1028.0  0.00  0.00   0.041   0.000   22.6    35    6.3   21.4   7.00  .0749    116    1    100.0    5 
 1/05/16   8:00    6.7    6.7    6.5    85    4.3   2.0   WSW   0.17   3.0   WSW    6.7    6.6    6.6  1028.1  0.00  0.00   0.041   0.000   22.6    36    6.7   21.5   7.15  .0749    117    1    100.0    5 
 1/05/16   8:05    6.8    6.8    6.7    85    4.4   3.0   WSW   0.25   4.0   WSW    6.2    6.7    6.1  1028.3  0.00  0.00   0.040   0.000   22.6    36    6.8   21.6   7.14  .0749    117    1    100.0    5 
 1/05/16   8:10    6.9    6.9    6.8    84    4.4   3.0   WSW   0.25   5.0   WSW    6.3    6.8    6.2  1028.3  0.00  0.00   0.040   0.000   22.6    36    6.8   21.6   7.14  .0749    117    1    100.0    5 
 1/05/16   8:15    6.9    6.9    6.9    84    4.4   3.0   WSW   0.25   4.0   WSW    6.4    6.9    6.3  1028.2  0.00  0.00   0.040   0.000   22.7    36    6.9   21.7   7.13  .0749    116    1    100.0    5 
 1/05/16   8:20    7.0    7.0    6.9    84    4.5   2.0    SW   0.17   3.0    SW    7.0    6.9    6.9  1028.1  0.00  0.00   0.039   0.000   22.7    36    6.9   21.7   7.13  .0749    116    1    100.0    5 
 1/05/16   8:25    7.2    7.2    7.1    84    4.7   2.0    SW   0.17   4.0    SW    7.2    7.2    7.2  1028.1  0.00  0.00   0.039   0.000   22.7    36    6.9   21.7   7.13  .0749    115    1    100.0    5 
 1/05/16   8:30    7.5    7.5    7.2    83    4.8   4.0    SW   0.33   5.0    SW    6.5    7.4    6.4  1028.1  0.00  0.00   0.038   0.000   22.8    36    6.9   21.8   7.13  .0749    117    1    100.0    5 
 1/05/16   8:35    7.5    7.6    7.5    81    4.4   4.0    SW   0.33   5.0    SW    6.5    7.4    6.4  1028.1  0.00  0.00   0.038   0.000   22.8    36    6.9   21.8   7.13  .0749    117    1    100.0    5 
 1/05/16   8:40    7.7    7.7    7.5    81    4.6   4.0   WSW   0.33   6.0    SW    6.7    7.6    6.6  1028.1  0.00  0.00   0.037   0.000   22.8    36    6.9   21.8   7.13  .0749    116    1    100.0    5 
 1/05/16   8:45    7.8    7.8    7.7    80    4.6   4.0   WSW   0.33   6.0   WSW    6.8    7.7    6.7  1028.2  0.00  0.00   0.036   0.000   22.8    36    6.9   21.8   7.13  .0749    116    1    100.0    5 
 1/05/16   8:50    8.0    8.0    7.8    80    4.8   4.0   WSW   0.33   6.0   WSW    7.1    7.9    6.9  1028.2  0.00  0.00   0.036   0.000   22.8    36    6.9   21.8   7.13  .0749    117    1    100.0    5 
 1/05/16   8:55    8.1    8.1    8.0    80    4.9   5.0   WSW   0.42   6.0   WSW    6.8    8.0    6.7  1028.2  0.00  0.00   0.035   0.000   22.8    35    6.5   21.8   6.99  .0749    117    1    100.0    5 
 1/05/16   9:00    8.3    8.3    8.1    80    5.1   5.0   WSW   0.42   8.0   WSW    7.1    8.2    6.9  1028.2  0.00  0.00   0.035   0.000   22.8    35    6.5   21.8   6.99  .0749    117    1    100.0    5 
 1/05/16   9:05    8.4    8.4    8.3    81    5.4   7.0   WSW   0.58   8.0   WSW    6.6    8.4    6.5  1028.2  0.00  0.00   0.034   0.000   22.8    35    6.5   21.8   6.99  .0749    117    1    100.0    5 
 1/05/16   9:10    8.6    8.6    8.4    80    5.3   7.0   WSW   0.58   8.0    SW    6.7    8.4    6.6  1028.2  0.00  0.00   0.034   0.000   22.8    36    6.9   21.8   7.13  .0749    116    1    100.0    5 
 1/05/16   9:15    8.7    8.7    8.6    80    5.4   7.0   WSW   0.58   9.0    SW    6.8    8.6    6.8  1028.2  0.00  0.00   0.034   0.000   22.8    35    6.5   21.8   6.99  .0749    117    1    100.0    5 
 1/05/16   9:20    8.8    8.8    8.6    80    5.5   7.0   WSW   0.58   8.0   WSW    7.0    8.7    6.9  1028.2  0.00  0.00   0.033   0.000   22.8    36    6.9   21.8   7.13  .0749    116    1    100.0    5 
 1/05/16   9:25    8.7    8.8    8.7    80    5.5   7.0   WSW   0.58   8.0    SW    6.9    8.7    6.8  1028.3  0.00  0.00   0.033   0.000   22.8    36    6.9   21.8   7.13  .0749    116    1    100.0    5 
 1/05/16   9:30    8.9    8.9    8.7    80    5.6   6.0    SW   0.50   8.0   WSW    7.4    8.8    7.3  1028.3  0.00  0.00   0.033   0.000   22.8    36    6.9   21.8   7.13  .0749    117    1    100.0    5 
 1/05/16   9:35    9.0    9.0    8.9    81    5.9   6.0    SW   0.50   8.0   WSW    7.5    8.9    7.4  1028.3  0.00  0.00   0.032   0.000   22.8    36    6.9   21.8   7.13  .0749    116    1    100.0    5 
 1/05/16   9:40    9.1    9.1    9.0    80    5.8   6.0    SW   0.50   7.0    SW    7.6    9.0    7.6  1028.3  0.00  0.00   0.032   0.000   22.8    36    6.9   21.8   7.13  .0749    116    1    100.0    5 
 1/05/16   9:45    9.2    9.2    9.1    80    5.9   6.0    SW   0.50   8.0    SW    7.8    9.2    7.7  1028.3  0.00  0.00   0.032   0.000   22.8    36    6.9   21.8   7.13  .0749    117    1    100.0    5 
 1/05/16   9:50    9.2    9.2    9.2    79    5.7   6.0    SW   0.50   7.0    SW    7.7    9.1    7.7  1028.2  0.00  0.00   0.032   0.000   22.8    36    6.9   21.8   7.13  .0749    117    1    100.0    5 
 1/05/16   9:55    9.3    9.3    9.2    80    6.0   5.0    SW   0.42   7.0    SW    8.2    9.2    8.1  1028.3  0.00  0.00   0.031   0.000   22.8    36    6.9   21.8   7.13  .0749    118    1    100.0    5 
 1/05/16  10:00    9.2    9.3    9.2    79    5.7   5.0    SW   0.42   7.0    SW    8.1    9.1    8.0  1028.3  0.00  0.00   0.032   0.000   22.8    37    7.4   21.9   7.29  .0748    117    1    100.0    5 
 1/05/16  10:05    9.4    9.4    9.2    80    6.2   5.0    SW   0.42   7.0    SW    8.3    9.4    8.3  1028.4  0.00  0.00   0.031   0.000   22.8    37    7.4   21.9   7.29  .0748    117    1    100.0    5 
 1/05/16  10:10    9.4    9.4    9.4    79    6.0   6.0    SW   0.50   7.0    SW    8.1    9.4    8.0  1028.4  0.00  0.00   0.031   0.000   22.8    37    7.4   21.9   7.29  .0748    117    1    100.0    5 
 1/05/16  10:15    9.4    9.4    9.3    79    5.9   6.0    SW   0.50   8.0    SW    8.0    9.3    7.9  1028.4  0.00  0.00   0.031   0.000   22.9    37    7.4   22.1   7.29  .0748    117    1    100.0    5 
 1/05/16  10:20    9.2    9.3    9.2    79    5.8   6.0    SW   0.50   8.0    SW    7.8    9.2    7.7  1028.4  0.00  0.00   0.032   0.000   22.9    37    7.4   22.1   7.29  .0748    117    1    100.0    5 
 1/05/16  10:25    9.4    9.4    9.2    79    6.0   6.0    SW   0.50   8.0    SW    8.1    9.4    8.0  1028.5  0.00  0.00   0.031   0.000   22.9    37    7.5   22.1   7.28  .0748    117    1    100.0    5 
 1/05/16  10:30    9.4    9.5    9.4    79    6.0   7.0    SW   0.58   8.0    SW    7.8    9.4    7.7  1028.5  0.00  0.00   0.031   0.000   23.0    37    7.5   22.2   7.28  .0748    117    1    100.0    5 
 1/05/16  10:35    9.7    9.7    9.4    79    6.2   7.0    SW   0.58   9.0    SW    8.1    9.6    8.0  1028.5  0.00  0.00   0.030   0.000   23.0    37    7.5   22.2   7.28  .0748    116    1    100.0    5 
 1/05/16  10:40    9.7    9.7    9.6    78    6.0   7.0    SW   0.58   9.0    SW    8.1    9.6    8.0  1028.4  0.00  0.00   0.030   0.000   23.1    37    7.6   22.3   7.28  .0748    117    1    100.0    5 
 1/05/16  10:45    9.9    9.9    9.7    79    6.4   7.0    SW   0.58   9.0    SW    8.3    9.8    8.3  1028.4  0.00  0.00   0.029   0.000   23.1    37    7.6   22.3   7.28  .0748    117    1    100.0    5 
 1/05/16  10:50   10.1   10.2    9.9    78    6.4   7.0   SSW   0.58  10.0   SSW    8.6   10.1    8.5  1028.5  0.00  0.00   0.029   0.000   23.1    37    7.6   22.4   7.28  .0748    117    1    100.0    5 
 1/05/16  10:55    9.9   10.1    9.8    77    6.0   7.0    SW   0.58   9.0    SW    8.3    9.8    8.3  1028.5  0.00  0.00   0.029   0.000   23.2    37    7.7   22.4   7.28  .0748    117    1    100.0    5 
 1/05/16  11:00   10.0   10.0    9.9    78    6.3   7.0    SW   0.58   9.0   SSW    8.4    9.9    8.4  1028.4  0.00  0.00   0.029   0.000   23.2    37    7.7   22.4   7.28  .0747    117    1    100.0    5 
 1/05/16  11:05   10.1   10.1    9.9    78    6.4   8.0    SW   0.67  10.0   SSW    8.2   10.1    8.1  1028.4  0.00  0.00   0.029   0.000   23.2    37    7.7   22.6   7.27  .0747    116    1    100.0    5 
 1/05/16  11:10   10.3   10.3   10.1    78    6.6   8.0   SSW   0.67  11.0    SW    8.4   10.2    8.3  1028.3  0.00  0.00   0.028   0.000   23.2    37    7.7   22.6   7.27  .0747    117    1    100.0    5 
 1/05/16  11:15   10.2   10.3   10.2    78    6.6   8.0   SSW   0.67  10.0    SW    8.3   10.2    8.3  1028.4  0.00  0.00   0.028   0.000   23.3    37    7.8   22.6   7.27  .0747    117    1    100.0    5 
 1/05/16  11:20   10.3   10.3   10.2    79    6.8   8.0   SSW   0.67  10.0    SW    8.4   10.2    8.3  1028.4  0.00  0.00   0.028   0.000   23.3    37    7.8   22.7   7.27  .0747    116    1    100.0    5 
 1/05/16  11:25   10.3   10.4   10.3    78    6.7   9.0   SSW   0.75  11.0    SW    8.1   10.3    8.1  1028.4  0.00  0.00   0.028   0.000   23.3    37    7.8   22.7   7.27  .0747    117    1    100.0    5 
 1/05/16  11:30   10.5   10.6   10.3    77    6.6   8.0    SW   0.67  11.0    SW    8.7   10.4    8.6  1028.4  0.00  0.00   0.027   0.000   23.4    37    7.9   22.8   7.27  .0747    117    1    100.0    5 
 1/05/16  11:35   10.3   10.5   10.3    77    6.5  10.0   SSW   0.83  12.0   SSW    7.8   10.2    7.7  1028.2  0.00  0.00   0.028   0.000   23.4    38    8.3   22.8   7.39  .0746    117    1    100.0    5 
 1/05/16  11:40   10.4   10.4   10.3    77    6.5  10.0   SSW   0.83  12.0    SW    7.8   10.3    7.7  1028.2  0.00  0.00   0.028   0.000   23.4    38    8.3   22.9   7.38  .0746    117    1    100.0    5 
 1/05/16  11:45   10.7   10.7   10.4    77    6.8   9.0   SSW   0.75  11.0   SSW    8.5   10.6    8.4  1028.2  0.00  0.00   0.027   0.000   23.5    38    8.4   22.9   7.38  .0746    116    1    100.0    5 
 1/05/16  11:50   10.4   10.7   10.4    76    6.4  10.0   SSW   0.83  12.0   SSW    7.9   10.3    7.8  1028.2  0.00  0.00   0.027   0.000   23.6    39    8.8   23.1   7.56  .0746    117    1    100.0    5 
 1/05/16  11:55   10.7   10.7   10.4    77    6.8   9.0   SSW   0.75  12.0   SSW    8.5   10.6    8.4  1028.2  0.00  0.00   0.027   0.000   23.7    39    8.9   23.2   7.56  .0745    117    1    100.0    5 
 1/05/16  12:00   10.6   10.7   10.6    74    6.2  10.0   SSW   0.83  13.0   SSW    8.1   10.4    7.9  1028.2  0.00  0.00   0.027   0.000   23.7    39    8.9   23.2   7.56  .0745    118    1    100.0    5 
 1/05/16  12:05   10.6   10.6   10.6    75    6.4  10.0   SSW   0.83  13.0   SSW    8.1   10.4    7.9  1028.1  0.00  0.00   0.027   0.000   23.7    38    8.6   23.2   7.36  .0745    117    1    100.0    5 
 1/05/16  12:10   10.9   10.9   10.6    75    6.6   9.0    SW   0.75  12.0   SSW    8.8   10.7    8.6  1028.1  0.00  0.00   0.026   0.000   23.8    39    9.0   23.3   7.55  .0745    117    1    100.0    5 
 1/05/16  12:15   10.8   10.8   10.8    75    6.6  10.0    SW   0.83  12.0    SW    8.4   10.7    8.2  1028.2  0.00  0.00   0.026   0.000   23.8    39    9.0   23.3   7.55  .0745    117    1    100.0    5 
 1/05/16  12:20   10.8   10.9   10.7    75    6.5  10.0    SW   0.83  13.0    SW    8.3   10.6    8.1  1028.2  0.00  0.00   0.026   0.000   23.9    40    9.5   23.4   7.65  .0745    117    1    100.0    5 
 1/05/16  12:25   10.7   10.8   10.7    76    6.6  10.0    SW   0.83  14.0    SW    8.2   10.5    8.0  1028.1  0.00  0.00   0.027   0.000   23.9    39    9.1   23.4   7.55  .0745    117    1    100.0    5 
 1/05/16  12:30   10.8   10.8   10.7    77    6.9  11.0   SSW   0.92  13.0   SSW    8.0   10.6    7.8  1028.1  0.00  0.00   0.026   0.000   24.0    39    9.2   23.5   7.55  .0744    117    1    100.0    5 
 1/05/16  12:35   10.9   11.1   10.8    77    7.1  10.0   SSW   0.83  13.0    SW    8.5   10.8    8.3  1028.1  0.00  0.00   0.026   0.000   24.0    39    9.2   23.5   7.55  .0744    117    1    100.0    5 
 1/05/16  12:40   11.1   11.1   10.9    76    7.0  10.0   SSW   0.83  13.0    SW    8.6   10.8    8.4  1028.1  0.00  0.00   0.025   0.000   24.1    38    8.9   23.5   7.34  .0744    117    1    100.0    5 
 1/05/16  12:45   10.9   11.1   10.8    77    7.1  11.0    SW   0.92  14.0    SW    8.2   10.8    8.0  1028.0  0.00  0.00   0.026   0.000   24.1    38    8.9   23.5   7.34  .0744    117    1    100.0    5 
 1/05/16  12:50   11.1   11.1   10.9    77    7.2  11.0   SSW   0.92  14.0   SSW    8.3   10.9    8.2  1027.9  0.00  0.00   0.025   0.000   24.1    38    8.9   23.6   7.34  .0744    117    1    100.0    5 
 1/05/16  12:55   11.1   11.1   10.9    76    7.0  11.0    SW   0.92  14.0    SW    8.3   10.8    8.1  1027.9  0.00  0.00   0.025   0.000   24.2    38    9.0   23.7   7.34  .0744    116    1    100.0    5 
 1/05/16  13:00   11.1   11.2   11.1    74    6.6  11.0    SW   0.92  14.0    SW    8.4   10.9    8.2  1028.0  0.00  0.00   0.025   0.000   24.2    39    9.4   23.7   7.54  .0744    116    1    100.0    5 
 1/05/16  13:05   10.9   11.1   10.8    74    6.4  11.0    SW   0.92  14.0    SW    8.1   10.7    7.9  1028.0  0.00  0.00   0.026   0.000   24.3    38    9.0   23.7   7.34  .0744    117    1    100.0    5 
 1/05/16  13:10   11.2   11.2   10.9    76    7.1  11.0    SW   0.92  14.0    SW    8.4   10.9    8.2  1027.9  0.00  0.00   0.025   0.000   24.3    38    9.1   23.8   7.33  .0743    116    1    100.0    5 
 1/05/16  13:15   11.1   11.2   10.9    77    7.2  12.0    SW   1.00  15.0    SW    8.1   10.9    7.9  1027.9  0.00  0.00   0.025   0.000   24.4    38    9.1   23.8   7.33  .0743    117    1    100.0    5 
 1/05/16  13:20   11.3   11.3   11.1    75    7.0  12.0    SW   1.00  15.0   SSW    8.3   11.1    8.1  1027.9  0.00  0.00   0.024   0.000   24.4    38    9.2   23.9   7.33  .0743    117    1    100.0    5 
 1/05/16  13:25   11.1   11.3   11.1    75    6.8  13.0    SW   1.08  16.0    SW    7.8   10.8    7.6  1027.9  0.00  0.00   0.025   0.000   24.5    37    8.8   23.9   7.23  .0743    117    1    100.0    5 
 1/05/16  13:30   11.1   11.2   11.1    75    6.8  13.0    SW   1.08  16.0    SW    7.8   10.8    7.6  1027.8  0.00  0.00   0.025   0.000   24.6    37    8.9   24.0   7.23  .0743    117    1    100.0    5 
 1/05/16  13:35   11.2   11.2   10.9    76    7.1  12.0    SW   1.00  16.0    SW    8.2   11.0    8.0  1027.7  0.00  0.00   0.025   0.000   24.6    37    8.9   24.0   7.23  .0743    117    1    100.0    5 
 1/05/16  13:40   11.3   11.4   11.2    75    7.0  12.0    SW   1.00  16.0    SW    8.3   11.1    8.1  1027.7  0.00  0.00   0.024   0.000   24.6    37    8.9   24.1   7.22  .0743    117    1    100.0    5 
 1/05/16  13:45   11.3   11.3   11.3    76    7.3  12.0   SSW   1.00  16.0   SSW    8.3   11.1    8.1  1027.8  0.00  0.00   0.024   0.000   24.7    37    9.0   24.1   7.22  .0743    117    1    100.0    5 
 1/05/16  13:50   11.2   11.3   11.1    76    7.1  13.0    SW   1.08  16.0   SSW    7.9   10.9    7.7  1027.7  0.00  0.00   0.025   0.000   24.7    37    9.0   24.2   7.22  .0742    117    1    100.0    5 
 1/05/16  13:55   11.3   11.3   11.2    75    7.0  13.0    SW   1.08  16.0    SW    8.1   11.1    7.8  1027.7  0.00  0.00   0.024   0.000   24.7    37    9.0   24.2   7.22  .0742    117    1    100.0    5 
 1/05/16  14:00   11.3   11.4   11.3    76    7.2  13.0    SW   1.08  16.0   SSW    8.1   11.1    7.8  1027.7  0.00  0.00   0.024   0.000   24.8    37    9.1   24.2   7.22  .0742    116    1    100.0    5 
 1/05/16  14:05   11.5   11.5   11.3    76    7.4  13.0    SW   1.08  16.0    SW    8.3   11.3    8.1  1027.6  0.00  0.00   0.024   0.000   24.8    37    9.1   24.3   7.22  .0742    116    1    100.0    5 
 1/05/16  14:10   11.2   11.6   11.2    76    7.1  14.0    SW   1.17  17.0   SSW    7.8   11.0    7.6  1027.7  0.00  0.00   0.025   0.000   24.9    37    9.2   24.3   7.21  .0742    116    1    100.0    5 
 1/05/16  14:15   11.4   11.4   11.2    76    7.3  14.0   SSW   1.17  17.0    SW    7.9   11.2    7.7  1027.6  0.00  0.00   0.024   0.000   24.9    37    9.2   24.3   7.21  .0742    117    1    100.0    5 
 1/05/16  14:20   11.4   11.5   11.4    75    7.2  15.0   SSW   1.25  18.0   SSW    7.9   11.2    7.6  1027.5  0.00  0.00   0.024   0.000   24.9    37    9.2   24.4   7.21  .0742    116    1    100.0    5 
 1/05/16  14:25   11.4   11.4   11.3    76    7.4  14.0   SSW   1.17  18.0   SSW    8.1   11.2    7.8  1027.5  0.00  0.00   0.024   0.000   25.0    37    9.3   24.5   7.21  .0741    116    1    100.0    5 
 1/05/16  14:30   11.6   11.6   11.4    76    7.5  14.0   SSW   1.17  17.0   SSW    8.2   11.3    7.9  1027.6  0.00  0.00   0.024   0.000   25.0    36    8.9   24.4   7.01  .0742    117    1    100.0    5 
 1/05/16  14:35   11.4   11.6   11.4    75    7.2  14.0   SSW   1.17  17.0   SSW    8.1   11.2    7.8  1027.6  0.00  0.00   0.024   0.000   25.1    36    8.9   24.5   7.01  .0741    117    1    100.0    5 
 1/05/16  14:40   11.4   11.5   11.4    75    7.1  14.0   SSW   1.17  17.0   SSW    7.9   11.1    7.7  1027.6  0.00  0.00   0.024   0.000   25.1    36    8.9   24.5   7.01  .0741    117    1    100.0    5 
 1/05/16  14:45   11.4   11.4   11.3    76    7.4  14.0   SSW   1.17  18.0    SW    8.1   11.2    7.8  1027.6  0.00  0.00   0.024   0.000   25.1    36    8.9   24.5   7.01  .0741    116    1    100.0    5 
 1/05/16  14:50   11.1   11.4   11.1    76    7.0  14.0    SW   1.17  18.0    SW    7.7   10.9    7.4  1027.7  0.00  0.00   0.025   0.000   25.1    36    9.0   24.6   7.01  .0741    116    1    100.0    5 
 1/05/16  14:55   11.4   11.4   11.1    76    7.4  14.0   SSW   1.17  18.0    SW    8.1   11.2    7.8  1027.6  0.00  0.00   0.024   0.000   25.1    36    9.0   24.6   7.01  .0741    117    1    100.0    5 
 1/05/16  15:00   11.5   11.6   11.4    75    7.2  14.0    SW   1.17  18.0    SW    8.1   11.2    7.8  1027.5  0.00  0.00   0.024   0.000   25.2    36    9.0   24.6   7.00  .0741    116    1    100.0    5 
 1/05/16  15:05   11.6   11.6   11.3    77    7.7  14.0    SW   1.17  17.0    SW    8.2   11.3    7.9  1027.5  0.00  0.00   0.024   0.000   25.2    36    9.0   24.6   7.00  .0741    117    1    100.0    5 
 1/05/16  15:10   11.6   11.7   11.6    75    7.3  14.0    SW   1.17  18.0    SW    8.2   11.3    7.9  1027.5  0.00  0.00   0.024   0.000   25.2    36    9.0   24.6   7.00  .0741    117    1    100.0    5 
 1/05/16  15:15   11.3   11.6   11.3    75    7.0  14.0    SW   1.17  18.0   WSW    7.8   11.1    7.6  1027.6  0.00  0.00   0.024   0.000   25.2    36    9.1   24.6   7.00  .0741    117    1    100.0    5 
 1/05/16  15:20   11.3   11.3   11.2    76    7.2  14.0    SW   1.17  18.0    SW    7.8   11.1    7.6  1027.6  0.00  0.00   0.024   0.000   25.2    36    9.1   24.6   7.00  .0741    116    1    100.0    5 
 1/05/16  15:25   11.5   11.6   11.3    77    7.6  14.0    SW   1.17  17.0   SSW    8.1   11.3    7.9  1027.7  0.00  0.00   0.024   0.000   25.2    36    9.1   24.6   7.00  .0741    117    1    100.0    5 
 1/05/16  15:30   11.6   11.6   11.3    76    7.5  14.0    SW   1.17  17.0   SSW    8.2   11.3    7.9  1027.7  0.00  0.00   0.024   0.000   25.3    36    9.1   24.7   7.00  .0741    117    1    100.0    5 
 1/05/16  15:35   11.6   11.6   11.4    78    7.8  13.0    SW   1.08  16.0    SW    8.4   11.3    8.2  1027.7  0.00  0.00   0.024   0.000   25.3    36    9.1   24.7   7.00  .0741    117    1    100.0    5 
 1/05/16  15:40   11.6   11.7   11.4    76    7.5  13.0    SW   1.08  17.0   SSW    8.4   11.3    8.2  1027.7  0.00  0.00   0.024   0.000   25.3    36    9.1   24.7   7.00  .0741    117    1    100.0    5 
 1/05/16  15:45   11.2   11.6   11.2    76    7.1  13.0    SW   1.08  16.0   SSW    8.0   11.0    7.8  1027.7  0.00  0.00   0.025   0.000   25.3    36    9.1   24.7   7.00  .0741    116    1    100.0    5 
 1/05/16  15:50   11.1   11.2   11.1    77    7.2  14.0    SW   1.17  18.0    SW    7.7   10.9    7.5  1027.7  0.00  0.00   0.025   0.000   25.2    37    9.5   24.7   7.20  .0741    117    1    100.0    5 
 1/05/16  15:55   11.3   11.3   11.1    77    7.4  14.0    SW   1.17  17.0    SW    7.8   11.1    7.7  1027.6  0.00  0.00   0.024   0.000   25.2    38    9.9   24.7   7.30  .0741    117    1    100.0    5 
 1/05/16  16:00   11.1   11.3   11.1    77    7.2  14.0    SW   1.17  17.0    SW    7.7   10.9    7.5  1027.6  0.00  0.00   0.025   0.000   25.2    39   10.3   24.7   7.50  .0740    117    1    100.0    5 
 1/05/16  16:05   11.4   11.4   11.1    78    7.7  14.0   SSW   1.17  16.0   SSW    7.9   11.2    7.8  1027.5  0.00  0.00   0.024   0.000   25.2    40   10.6   24.7   7.60  .0740    117    1    100.0    5 
 1/05/16  16:10   11.4   11.5   11.4    77    7.5  14.0   SSW   1.17  17.0   SSW    7.9   11.2    7.7  1027.6  0.00  0.00   0.024   0.000   25.2    41   11.0   24.8   7.75  .0740    117    1    100.0    5 
 1/05/16  16:15   11.4   11.4   11.4    78    7.7  14.0   SSW   1.17  17.0    SW    8.1   11.3    7.9  1027.5  0.00  0.00   0.024   0.000   25.3    43   11.8   24.9   8.05  .0739    118    1    100.0    5 
 1/05/16  16:20   11.4   11.4   11.4    78    7.7  14.0    SW   1.17  17.0    SW    7.9   11.2    7.8  1027.4  0.00  0.00   0.024   0.000   25.3    43   11.8   24.9   8.05  .0739    117    1    100.0    5 
 1/05/16  16:25   11.3   11.4   11.3    78    7.6  15.0   SSW   1.25  18.0   SSW    7.7   11.2    7.6  1027.5  0.00  0.00   0.024   0.000   25.3    44   12.2   25.1   8.20  .0739    117    1    100.0    5 
 1/05/16  16:30   11.3   11.3   11.3    79    7.8  13.0    SW   1.08  16.0   SSW    8.1   11.2    7.9  1027.4  0.00  0.00   0.024   0.000   25.3    44   12.2   25.1   8.20  .0739    117    1    100.0    5 
 1/05/16  16:35   11.4   11.4   11.3    80    8.1  13.0    SW   1.08  17.0   SSW    8.2   11.3    8.1  1027.4  0.00  0.00   0.024   0.000   25.4    44   12.2   25.1   8.20  .0738    117    1    100.0    5 
 1/05/16  16:40   11.1   11.4   11.1    80    7.8  13.0    SW   1.08  16.0    SW    7.9   11.0    7.8  1027.3  0.00  0.00   0.025   0.000   25.4    45   12.6   25.2   8.40  .0738    117    1    100.0    5 
 1/05/16  16:45   10.9   11.1   10.9    80    7.6  14.0    SW   1.17  17.0    SW    7.5   10.8    7.4  1027.3  0.00  0.00   0.026   0.000   25.4    45   12.6   25.2   8.39  .0738    117    1    100.0    5 
 1/05/16  16:50   10.9   11.0   10.9    79    7.4  13.0    SW   1.08  16.0    SW    7.7   10.8    7.6  1027.2  0.00  0.00   0.026   0.000   25.5    44   12.3   25.2   8.19  .0738    117    1    100.0    5 
 1/05/16  16:55   10.9   11.0   10.9    79    7.4  14.0    SW   1.17  17.0    SW    7.5   10.8    7.4  1027.2  0.00  0.00   0.026   0.000   25.5    44   12.3   25.2   8.19  .0738    116    1    100.0    5 
 1/05/16  17:00   10.8   10.9   10.8    79    7.3  15.0    SW   1.25  17.0    SW    7.1   10.7    7.0  1027.2  0.00  0.00   0.026   0.000   25.5    43   12.0   25.2   8.05  .0738    117    1    100.0    5 
 1/05/16  17:05   10.6   10.8   10.6    78    6.9  15.0    SW   1.25  19.0    SW    6.9   10.5    6.8  1027.2  0.00  0.00   0.027   0.000   25.6    42   11.7   25.2   7.89  .0738    117    1    100.0    5 
 1/05/16  17:10   10.9   10.9   10.6    81    7.8  13.0    SW   1.08  17.0    SW    7.6   10.8    7.6  1027.2  0.00  0.00   0.026   0.000   25.6    42   11.7   25.2   7.89  .0738    116    1    100.0    5 
 1/05/16  17:15   10.7   10.9   10.7    79    7.2  16.0    SW   1.33  18.0    SW    6.8   10.6    6.7  1027.3  0.00  0.00   0.027   0.000   25.6    41   11.4   25.2   7.75  .0738    117    1    100.0    5 
 1/05/16  17:20   10.6   10.7   10.6    78    6.9  15.0    SW   1.25  18.0    SW    6.9   10.5    6.8  1027.3  0.00  0.00   0.027   0.000   25.6    41   11.4   25.2   7.75  .0738    116    1    100.0    5 
 1/05/16  17:25   10.6   10.7   10.6    79    7.1  14.0    SW   1.17  17.0    SW    7.1   10.6    7.1  1027.3  0.00  0.00   0.027   0.000   25.6    40   11.0   25.1   7.59  .0739    117    1    100.0    5 
 1/05/16  17:30   10.6   10.7   10.6    79    7.1  14.0    SW   1.17  18.0    SW    7.1   10.6    7.1  1027.2  0.00  0.00   0.027   0.000   25.6    40   11.0   25.1   7.59  .0739    117    1    100.0    5 
 1/05/16  17:35   10.6   10.7   10.6    79    7.1  14.0    SW   1.17  17.0    SW    7.1   10.6    7.1  1027.2  0.00  0.00   0.027   0.000   25.6    40   11.0   25.1   7.59  .0739    117    1    100.0    5 
 1/05/16  17:40   10.6   10.6   10.6    79    7.1  14.0    SW   1.17  19.0    SW    7.1   10.5    7.0  1027.2  0.00  0.00   0.027   0.000   25.6    40   11.0   25.1   7.59  .0739    117    1    100.0    5 
 1/05/16  17:45   10.5   10.6   10.5    78    6.8  14.0    SW   1.17  18.0    SW    7.0   10.4    6.9  1027.2  0.00  0.00   0.027   0.000   25.6    39   10.6   25.1   7.49  .0739    117    1    100.0    5 
 1/05/16  17:50   10.6   10.6   10.4    80    7.2  14.0    SW   1.17  18.0    SW    7.1   10.5    7.0  1027.2  0.00  0.00   0.027   0.000   25.6    39   10.6   25.1   7.49  .0739    117    1    100.0    5 
 1/05/16  17:55   10.6   10.6   10.5    79    7.1  15.0    SW   1.25  18.0    SW    6.8   10.5    6.8  1027.2  0.00  0.00   0.027   0.000   25.6    39   10.6   25.1   7.49  .0739    117    1    100.0    5 
 1/05/16  18:00   10.6   10.6   10.5    80    7.3  15.0    SW   1.25  18.0    SW    6.9   10.6    6.8  1027.2  0.00  0.00   0.027   0.000   25.6    39   10.6   25.1   7.49  .0739    116    1    100.0    5 
 1/05/16  18:05   10.7   10.7   10.6    80    7.4  15.0    SW   1.25  18.0    SW    6.9   10.6    6.9  1027.1  0.00  0.00   0.027   0.000   25.6    39   10.6   25.1   7.49  .0739    117    1    100.0    5 
 1/05/16  18:10   10.6   10.6   10.6    81    7.4  15.0    SW   1.25  18.0    SW    6.8   10.5    6.8  1027.2  0.00  0.00   0.027   0.000   25.6    39   10.6   25.1   7.49  .0739    115    1    100.0    5 
 1/05/16  18:15   10.6   10.6   10.5    82    7.7  14.0    SW   1.17  18.0   WSW    7.1   10.6    7.1  1027.2  0.00  0.00   0.027   0.000   25.6    39   10.6   25.0   7.49  .0739    117    1    100.0    5 
 1/05/16  18:20   10.5   10.7   10.5    81    7.4  15.0    SW   1.25  18.0    SW    6.8   10.4    6.7  1027.1  0.00  0.00   0.027   0.000   25.5    39   10.5   24.9   7.49  .0739    118    1    100.0    5 
 1/05/16  18:25   10.4   10.6   10.4    80    7.1  14.0    SW   1.17  19.0    SW    6.9   10.4    6.9  1027.0  0.00  0.00   0.027   0.000   25.5    38   10.1   24.9   7.29  .0739    117    1    100.0    5 
 1/05/16  18:30   10.5   10.5   10.4    81    7.4  15.0   WSW   1.25  18.0   WSW    6.8   10.4    6.7  1027.0  0.00  0.00   0.027   0.000   25.5    38   10.1   24.9   7.29  .0739    116    1    100.0    5 
 1/05/16  18:35   10.4   10.5   10.4    80    7.1  14.0    SW   1.17  17.0    SW    6.9   10.4    6.9  1026.9  0.00  0.00   0.027   0.000   25.4    38   10.1   24.9   7.29  .0739    117    1    100.0    5 
 1/05/16  18:40   10.4   10.4   10.4    81    7.3  14.0    SW   1.17  17.0    SW    6.9   10.4    6.9  1026.9  0.00  0.00   0.027   0.000   25.4    38   10.1   24.9   7.29  .0739    117    1    100.0    5 
 1/05/16  18:45   10.4   10.4   10.4    81    7.3  14.0    SW   1.17  17.0    SW    6.9   10.4    6.9  1026.9  0.00  0.00   0.027   0.000   25.4    38   10.1   24.9   7.29  .0739    116    1    100.0    5 
 1/05/16  18:50   10.4   10.5   10.4    82    7.5  13.0    SW   1.08  16.0    SW    7.1   10.4    7.1  1026.9  0.00  0.00   0.027   0.000   25.4    38   10.0   24.8   7.30  .0739    117    1    100.0    5 
 1/05/16  18:55   10.4   10.4   10.4    82    7.4  14.0    SW   1.17  16.0    SW    6.8   10.4    6.8  1026.9  0.00  0.00   0.028   0.000   25.4    38   10.0   24.8   7.30  .0739    117    1    100.0    5 
 1/05/16  19:00   10.4   10.4   10.4    82    7.5  12.0    SW   1.00  15.0    SW    7.3   10.4    7.3  1026.9  0.00  0.00   0.027   0.000   25.4    38   10.0   24.8   7.30  .0740    117    1    100.0    5 
 1/05/16  19:05   10.4   10.5   10.4    83    7.7  12.0    SW   1.00  15.0    SW    7.3   10.4    7.3  1026.9  0.00  0.00   0.027   0.000   25.3    38   10.0   24.8   7.30  .0740    117    1    100.0    5 
 1/05/16  19:10   10.4   10.5   10.4    82    7.4  12.0    SW   1.00  15.0    SW    7.3   10.4    7.3  1027.0  0.00  0.00   0.028   0.000   25.3    38    9.9   24.7   7.30  .0740    116    1    100.0    5 
 1/05/16  19:15   10.3   10.4   10.3    83    7.6  13.0    SW   1.08  16.0    SW    7.0   10.3    7.0  1026.9  0.00  0.00   0.028   0.000   25.3    38    9.9   24.7   7.30  .0740    116    1    100.0    5 
 1/05/16  19:20   10.4   10.4   10.3    83    7.6  11.0    SW   0.92  14.0    SW    7.6   10.4    7.6  1026.8  0.00  0.00   0.028   0.000   25.2    38    9.9   24.7   7.30  .0740    117    1    100.0    5 
 1/05/16  19:25   10.4   10.4   10.3    83    7.6  11.0    SW   0.92  14.0    SW    7.6   10.4    7.6  1026.9  0.00  0.00   0.028   0.000   25.2    38    9.9   24.7   7.30  .0740    117    1    100.0    5 
 1/05/16  19:30   10.3   10.4   10.3    83    7.6  12.0    SW   1.00  14.0    SW    7.2   10.3    7.2  1026.9  0.00  0.00   0.028   0.000   25.2    38    9.9   24.7   7.30  .0740    117    1    100.0    5 
 1/05/16  19:35   10.3   10.3   10.3    83    7.6  11.0    SW   0.92  14.0    SW    7.5   10.3    7.5  1026.9  0.00  0.00   0.028   0.000   25.2    38    9.8   24.7   7.30  .0740    117    1    100.0    5 
 1/05/16  19:40   10.3   10.3   10.3    83    7.6  11.0    SW   0.92  13.0    SW    7.5   10.3    7.5  1026.9  0.00  0.00   0.028   0.000   25.2    38    9.8   24.7   7.30  .0740    116    1    100.0    5 
 1/05/16  19:45   10.3   10.3   10.3    82    7.3  12.0    SW   1.00  13.0    SW    7.1   10.3    7.1  1026.9  0.00  0.00   0.028   0.000   25.1    38    9.8   24.6   7.31  .0740    117    1    100.0    5 
 1/05/16  19:50   10.3   10.3   10.3    83    7.6  11.0    SW   0.92  14.0    SW    7.5   10.3    7.5  1026.9  0.00  0.00   0.028   0.000   25.1    38    9.7   24.6   7.31  .0740    115    1    100.0    5 
 1/05/16  19:55   10.3   10.3   10.3    83    7.6  10.0    SW   0.83  13.0   SSW    7.8   10.3    7.8  1026.9  0.00  0.00   0.028   0.000   25.1    38    9.7   24.6   7.31  .0740    117    1    100.0    5 
 1/05/16  20:00   10.3   10.3   10.3    83    7.5  11.0    SW   0.92  14.0    SW    7.4   10.3    7.4  1026.8  0.00  0.00   0.028   0.000   25.0    38    9.7   24.5   7.31  .0741    116    1    100.0    5 
 1/05/16  20:05   10.3   10.3   10.3    83    7.5  10.0    SW   0.83  14.0   SSW    7.7   10.3    7.7  1026.8  0.00  0.00   0.028   0.000   25.0    38    9.7   24.5   7.31  .0741    117    1    100.0    5 
 1/05/16  20:10   10.3   10.3   10.3    84    7.7  11.0   SSW   0.92  13.0   SSW    7.5   10.3    7.5  1026.7  0.00  0.00   0.028   0.000   24.9    38    9.6   24.4   7.31  .0741    117    1    100.0    5 
 1/05/16  20:15   10.3   10.3   10.3    83    7.5  11.0   SSW   0.92  14.0   SSW    7.4   10.3    7.4  1026.7  0.00  0.00   0.028   0.000   24.9    38    9.6   24.4   7.31  .0741    116    1    100.0    5 
 1/05/16  20:20   10.3   10.3   10.3    84    7.7  11.0   SSW   0.92  14.0   SSW    7.4   10.3    7.4  1026.6  0.00  0.00   0.028   0.000   24.9    38    9.6   24.4   7.31  .0741    115    1    100.0    5 
 1/05/16  20:25   10.3   10.3   10.3    84    7.7  11.0   SSW   0.92  13.0   SSW    7.4   10.3    7.4  1026.6  0.00  0.00   0.028   0.000   24.8    38    9.5   24.3   7.32  .0741    117    1    100.0    5 
 1/05/16  20:30   10.3   10.3   10.2    84    7.7  10.0   SSW   0.83  13.0   SSW    7.7   10.3    7.7  1026.6  0.00  0.00   0.028   0.000   24.8    38    9.5   24.3   7.32  .0741    118    1    100.0    5 
 1/05/16  20:35   10.3   10.3   10.3    85    7.9   9.0   SSW   0.75  12.0   SSW    8.1   10.3    8.1  1026.6  0.00  0.00   0.028   0.000   24.8    38    9.5   24.3   7.32  .0741    117    1    100.0    5 
 1/05/16  20:40   10.3   10.3   10.3    86    8.1   9.0   SSW   0.75  12.0   SSW    8.1   10.4    8.2  1026.6  0.00  0.00   0.028   0.000   24.7    38    9.4   24.2   7.32  .0741    117    1    100.0    5 
 1/05/16  20:45   10.2   10.3   10.2    85    7.8   9.0   SSW   0.75  12.0   SSW    8.0   10.3    8.1  1026.7  0.00  0.00   0.028   0.000   24.7    38    9.4   24.2   7.32  .0741    115    1    100.0    5 
 1/05/16  20:50   10.2   10.2   10.2    85    7.8   9.0   SSW   0.75  13.0   SSW    8.0   10.3    8.1  1026.7  0.00  0.00   0.028   0.000   24.7    38    9.4   24.1   7.32  .0742    116    1    100.0    5 
 1/05/16  20:55   10.2   10.2   10.2    85    7.8  10.0   SSW   0.83  13.0   SSW    7.7   10.3    7.7  1026.7  0.00  0.00   0.028   0.000   24.7    38    9.4   24.1   7.32  .0742    116    1    100.0    5 
 1/05/16  21:00   10.2   10.2   10.2    85    7.8  11.0   SSW   0.92  13.0   SSW    7.3   10.3    7.4  1026.6  0.00  0.00   0.028   0.000   24.6    38    9.3   24.1   7.32  .0742    117    1    100.0    5 
 1/05/16  21:05   10.2   10.3   10.2    85    7.8  11.0   SSW   0.92  12.0   SSW    7.3   10.3    7.4  1026.7  0.00  0.00   0.028   0.000   24.6    38    9.3   24.0   7.33  .0742    115    1    100.0    5 
 1/05/16  21:10   10.3   10.3   10.2    85    7.9  10.0   SSW   0.83  12.0   SSW    7.7   10.3    7.7  1026.7  0.00  0.00   0.028   0.000   24.6    38    9.3   24.0   7.33  .0742    116    1    100.0    5 
 1/05/16  21:15   10.3   10.3   10.3    85    7.9  10.0   SSW   0.83  12.0   SSW    7.8   10.3    7.8  1026.7  0.00  0.00   0.028   0.000   24.5    38    9.2   23.9   7.33  .0742    117    1    100.0    5 
 1/05/16  21:20   10.3   10.3   10.3    85    7.9  10.0   SSW   0.83  12.0   SSW    7.7   10.3    7.7  1026.6  0.00  0.00   0.028   0.000   24.5    38    9.2   23.9   7.33  .0742    117    1    100.0    5 
 1/05/16  21:25   10.3   10.3   10.3    85    7.9   9.0   SSW   0.75  12.0   SSW    8.1   10.3    8.1  1026.6  0.00  0.00   0.028   0.000   24.4    38    9.2   23.9   7.33  .0742    115    1    100.0    5 
 1/05/16  21:30   10.3   10.3   10.3    86    8.1   9.0   SSW   0.75  12.0   SSW    8.1   10.4    8.2  1026.5  0.00  0.00   0.028   0.000   24.4    38    9.2   23.9   7.33  .0742    116    1    100.0    5 
 1/05/16  21:35   10.3   10.3   10.3    85    7.9  10.0   SSW   0.83  12.0   SSW    7.8   10.3    7.8  1026.5  0.00  0.00   0.028   0.000   24.4    38    9.1   23.8   7.33  .0742    115    1    100.0    5 
 1/05/16  21:40   10.3   10.3   10.3    85    7.9  11.0   SSW   0.92  13.0   SSW    7.4   10.3    7.4  1026.5  0.00  0.00   0.028   0.000   24.4    38    9.1   23.8   7.33  .0742    117    1    100.0    5 
 1/05/16  21:45   10.3   10.3   10.3    85    7.9  10.0   SSW   0.83  13.0   SSW    7.8   10.3    7.8  1026.5  0.00  0.00   0.028   0.000   24.3    38    9.0   23.7   7.34  .0743    117    1    100.0    5 
 1/05/16  21:50   10.3   10.3   10.3    85    7.9  11.0   SSW   0.92  13.0   SSW    7.5   10.3    7.5  1026.5  0.00  0.00   0.028   0.000   24.3    38    9.0   23.7   7.34  .0743    117    1    100.0    5 
 1/05/16  21:55   10.3   10.3   10.3    85    7.9  10.0   SSW   0.83  13.0   SSW    7.8   10.3    7.8  1026.5  0.00  0.00   0.028   0.000   24.3    38    9.0   23.7   7.34  .0743    117    1    100.0    5 
 1/05/16  22:00   10.3   10.4   10.3    85    7.9  11.0   SSW   0.92  14.0   SSW    7.5   10.3    7.5  1026.5  0.00  0.00   0.028   0.000   24.2    38    9.0   23.7   7.34  .0743    117    1    100.0    5 
 1/05/16  22:05   10.4   10.4   10.3    85    8.0  11.0   SSW   0.92  14.0   SSW    7.6   10.4    7.6  1026.5  0.00  0.00   0.028   0.000   24.2    38    8.9   23.6   7.34  .0743    116    1    100.0    5 
 1/05/16  22:10   10.4   10.4   10.4    85    8.0  12.0   SSW   1.00  14.0   SSW    7.3   10.4    7.3  1026.4  0.00  0.00   0.028   0.000   24.2    38    8.9   23.6   7.34  .0743    117    1    100.0    5 
 1/05/16  22:15   10.4   10.4   10.4    85    8.0  12.0   SSW   1.00  14.0   SSW    7.3   10.4    7.3  1026.4  0.00  0.00   0.027   0.000   24.1    38    8.9   23.6   7.34  .0743    117    1    100.0    5 
 1/05/16  22:20   10.4   10.4   10.4    85    8.0  12.0   SSW   1.00  15.0   SSW    7.3   10.4    7.3  1026.4  0.00  0.00   0.027   0.000   24.1    38    8.9   23.6   7.34  .0743    116    1    100.0    5 
 1/05/16  22:25   10.6   10.6   10.4    86    8.3   9.0   SSW   0.75  12.0   SSW    8.4   10.6    8.4  1026.4  0.00  0.00   0.027   0.000   24.1    38    8.9   23.5   7.34  .0743    117    1    100.0    5 
 1/05/16  22:30   10.5   10.6   10.5    86    8.3  10.0   SSW   0.83  13.0   SSW    8.0   10.6    8.1  1026.5  0.00  0.00   0.027   0.000   24.1    38    8.9   23.5   7.34  .0743    117    1    100.0    5 
 1/05/16  22:35   10.4   10.5   10.4    86    8.1  10.0   SSW   0.83  13.0   SSW    7.8   10.4    7.9  1026.4  0.00  0.00   0.028   0.000   24.0    38    8.8   23.4   7.35  .0743    118    1    100.0    5 
 1/05/16  22:40   10.4   10.4   10.4    86    8.1   9.0   SSW   0.75  12.0   SSW    8.2   10.4    8.2  1026.4  0.00  0.00   0.028   0.000   24.0    38    8.8   23.4   7.35  .0743    116    1    100.0    5 
 1/05/16  22:45   10.4   10.4   10.4    86    8.1   9.0   SSW   0.75  11.0   SSW    8.2   10.4    8.2  1026.3  0.00  0.00   0.028   0.000   23.9    38    8.8   23.4   7.35  .0743    116    1    100.0    5 
 1/05/16  22:50   10.3   10.4   10.3    87    8.3   9.0   SSW   0.75  13.0   SSW    8.1   10.4    8.2  1026.3  0.00  0.00   0.028   0.000   23.9    38    8.8   23.4   7.35  .0743    117    1    100.0    5 
 1/05/16  22:55   10.3   10.3   10.3    87    8.3  11.0   SSW   0.92  13.0   SSW    7.5   10.4    7.6  1026.3  0.00  0.00   0.028   0.000   23.9    38    8.8   23.4   7.35  .0743    117    1    100.0    5 
 1/05/16  23:00   10.3   10.3   10.3    87    8.2  11.0   SSW   0.92  14.0   SSW    7.4   10.3    7.4  1026.3  0.00  0.00   0.028   0.000   23.9    38    8.7   23.3   7.35  .0744    117    1    100.0    5 
 1/05/16  23:05   10.3   10.3   10.3    87    8.2  10.0   SSW   0.83  13.0     S    7.7   10.3    7.8  1026.2  0.00  0.00   0.028   0.000   23.8    38    8.7   23.3   7.35  .0744    117    1    100.0    5 
 1/05/16  23:10   10.3   10.3   10.2    87    8.2  10.0   SSW   0.83  15.0   SSW    7.7   10.3    7.8  1026.3  0.00  0.00   0.028   0.000   23.8    38    8.7   23.3   7.35  .0744    116    1    100.0    5 
 1/05/16  23:15   10.3   10.3   10.3    87    8.2  11.0     S   0.92  14.0     S    7.4   10.3    7.4  1026.1  0.00  0.00   0.028   0.000   23.8    38    8.6   23.2   7.36  .0744    116    1    100.0    5 
 1/05/16  23:20   10.2   10.3   10.2    87    8.2  12.0   SSW   1.00  16.0   SSW    7.1   10.3    7.1  1026.1  0.00  0.00   0.028   0.000   23.7    38    8.6   23.2   7.36  .0744    117    1    100.0    5 
 1/05/16  23:25   10.2   10.2   10.2    87    8.2  11.0   SSW   0.92  15.0   SSW    7.3   10.3    7.4  1026.0  0.00  0.00   0.028   0.000   23.7    38    8.6   23.2   7.36  .0744    116    1    100.0    5 
 1/05/16  23:30   10.3   10.3   10.2    87    8.2  11.0   SSW   0.92  14.0   SSW    7.4   10.3    7.4  1025.9  0.00  0.00   0.028   0.000   23.7    38    8.5   23.1   7.37  .0744    117    1    100.0    5 
 1/05/16  23:35   10.2   10.3   10.2    87    8.2  11.0     S   0.92  15.0     S    7.3   10.3    7.4  1025.9  0.00  0.00   0.028   0.000   23.7    38    8.5   23.1   7.37  .0744    117    1    100.0    5 
 1/05/16  23:40   10.3   10.3   10.2    87    8.3  10.0   SSW   0.83  13.0   SSW    7.8   10.4    7.8  1025.9  0.00  0.00   0.028   0.000   23.7    38    8.5   23.1   7.37  .0744    118    1    100.0    5 
 1/05/16  23:45   10.3   10.3   10.3    86    8.0  11.0   SSW   0.92  15.0   SSW    7.4   10.3    7.4  1025.9  0.00  0.00   0.028   0.000   23.6    38    8.5   23.1   7.37  .0744    116    1    100.0    5 
 1/05/16  23:50   10.3   10.3   10.2    87    8.2  11.0   SSW   0.92  14.0   SSW    7.4   10.3    7.4  1025.9  0.00  0.00   0.028   0.000   23.6    38    8.4   23.0   7.37  .0744    117    1    100.0    5 
 1/05/16  23:55   10.2   10.3   10.2    86    8.0  12.0   SSW   1.00  15.0   SSW    7.1   10.3    7.1  1025.9  0.00  0.00   0.028   0.000   23.6    38    8.4   23.0   7.37  .0744    117    1    100.0    5 
 2/05/16  00:00   10.3   10.3   10.2    87    8.3  12.0     S   1.00  15.0     S    7.2   10.4    7.3  1025.9  0.00  0.00   0.028   0.000   23.5    38    8.4   22.9   7.38  .0744    117    1    100.0    5 
 2/05/16   0:05   10.3   10.4   10.3    86    8.1  12.0     S   1.00  15.0   SSW    7.2   10.4    7.3  1025.9  0.00  0.00   0.028   0.000   23.5    38    8.4   22.9   7.38  .0744    115    1    100.0    5 
 2/05/16   0:10   10.4   10.4   10.3    87    8.3  13.0     S   1.08  16.0   SSW    7.1   10.4    7.1  1025.8  0.00  0.00   0.028   0.000   23.4    38    8.3   22.9   7.38  .0745    117    1    100.0    5 
 2/05/16   0:15   10.3   10.4   10.3    87    8.3  13.0     S   1.08  17.0     S    7.0   10.4    7.1  1025.7  0.00  0.00   0.028   0.000   23.4    38    8.3   22.9   7.38  .0744    117    1    100.0    5 
 2/05/16   0:20   10.3   10.3   10.3    87    8.3  13.0     S   1.08  17.0   SSW    7.0   10.4    7.1  1025.6  0.00  0.00   0.028   0.000   23.4    38    8.3   22.8   7.39  .0745    117    1    100.0    5 
 2/05/16   0:25   10.3   10.3   10.3    87    8.3  13.0     S   1.08  16.0     S    7.0   10.4    7.1  1025.5  0.00  0.00   0.028   0.000   23.4    38    8.3   22.8   7.39  .0745    117    1    100.0    5 
 2/05/16   0:30   10.3   10.3   10.3    87    8.3  13.0     S   1.08  16.0   SSW    7.0   10.4    7.1  1025.5  0.00  0.00   0.028   0.000   23.4    39    8.6   22.8   7.57  .0744    117    1    100.0    5 
 2/05/16   0:35   10.2   10.3   10.2    86    8.0  14.0     S   1.17  18.0   SSW    6.7   10.3    6.7  1025.5  0.00  0.00   0.028   0.000   23.3    39    8.6   22.8   7.57  .0744    116    1    100.0    5 
 2/05/16   0:40   10.2   10.2   10.2    86    8.0  13.0     S   1.08  17.0     S    6.8   10.3    6.9  1025.4  0.00  0.00   0.028   0.000   23.3    38    8.2   22.7   7.39  .0745    117    1    100.0    5 
 2/05/16   0:45   10.3   10.3   10.2    86    8.0  12.0   SSW   1.00  16.0   SSW    7.1   10.3    7.2  1025.4  0.00  0.00   0.028   0.000   23.3    38    8.2   22.7   7.39  .0745    116    1    100.0    5 
 2/05/16   0:50   10.3   10.3   10.3    86    8.1  13.0   SSW   1.08  17.0   SSW    7.0   10.4    7.1  1025.4  0.00  0.00   0.028   0.000   23.2    38    8.1   22.6   7.40  .0745    117    1    100.0    5 
 2/05/16   0:55   10.3   10.4   10.3    86    8.1  14.0   SSW   1.17  17.0     S    6.8   10.4    6.8  1025.4  0.00  0.00   0.028   0.000   23.2    38    8.1   22.6   7.40  .0745    117    1    100.0    5 
 2/05/16   1:00   10.4   10.4   10.3    86    8.1  14.0   SSW   1.17  18.0   SSW    6.8   10.4    6.9  1025.3  0.00  0.00   0.028   0.000   23.2    38    8.1   22.5   7.40  .0745    117    1    100.0    5 
 2/05/16   1:05   10.4   10.4   10.4    86    8.1  14.0   SSW   1.17  17.0   SSW    6.8   10.4    6.9  1025.2  0.00  0.00   0.028   0.000   23.2    38    8.1   22.5   7.40  .0745    118    1    100.0    5 
 2/05/16   1:10   10.4   10.4   10.4    86    8.1  14.0   SSW   1.17  19.0   SSW    6.8   10.4    6.9  1025.2  0.00  0.00   0.028   0.000   23.1    39    8.4   22.5   7.58  .0745    117    1    100.0    5 
 2/05/16   1:15   10.4   10.4   10.4    86    8.2  14.0   SSW   1.17  19.0   SSW    6.9   10.5    7.0  1025.2  0.00  0.00   0.027   0.000   23.1    39    8.4   22.5   7.58  .0745    117    1    100.0    5 
 2/05/16   1:20   10.4   10.4   10.4    86    8.2  15.0   SSW   1.25  18.0   SSW    6.7   10.5    6.8  1025.1  0.00  0.00   0.027   0.000   23.1    39    8.3   22.4   7.58  .0745    117    1    100.0    5 
 2/05/16   1:25   10.4   10.5   10.4    86    8.2  17.0   SSW   1.42  22.0   SSW    6.4   10.5    6.4  1025.1  0.00  0.00   0.027   0.000   23.1    39    8.3   22.4   7.58  .0745    116    1    100.0    5 
 2/05/16   1:30   10.3   10.4   10.3    87    8.3  16.0   SSW   1.33  20.0   SSW    6.4   10.4    6.5  1025.1  0.00  0.00   0.028   0.000   23.0    39    8.3   22.3   7.58  .0745    117    1    100.0    5 
 2/05/16   1:35   10.3   10.4   10.3    87    8.3  17.0   SSW   1.42  22.0   SSW    6.3   10.4    6.3  1025.0  0.00  0.00   0.028   0.000   23.0    39    8.3   22.3   7.58  .0745    116    1    100.0    5 
 2/05/16   1:40   10.3   10.3   10.3    88    8.4  17.0   SSW   1.42  21.0   SSW    6.2   10.4    6.3  1024.9  0.00  0.00   0.028   0.000   22.9    39    8.2   22.2   7.58  .0745    116    1    100.0    5 
 2/05/16   1:45   10.2   10.3   10.2    89    8.5  17.0   SSW   1.42  21.0   SSW    6.1   10.3    6.2  1024.8  0.00  0.00   0.028   0.000   22.9    39    8.2   22.2   7.58  .0745    117    1    100.0    5 
 2/05/16   1:50   10.2   10.3   10.2    89    8.5  15.0   SSW   1.25  20.0   SSW    6.4   10.3    6.6  1024.7  0.00  0.00   0.028   0.000   22.9    39    8.2   22.2   7.59  .0745    115    1    100.0    5 
 2/05/16   1:55   10.3   10.3   10.2    89    8.5  15.0   SSW   1.25  19.0   SSW    6.6   10.4    6.7  1024.5  0.00  0.00   0.028   0.000   22.9    39    8.2   22.2   7.59  .0745    115    1    100.0    5 
 2/05/16   2:00   10.2   10.3   10.2    89    8.5  17.0   SSW   1.42  22.0   SSW    6.1   10.3    6.2  1024.5  0.00  0.00   0.028   0.000   22.8    39    8.1   22.1   7.59  .0745    116    1    100.0    5 
 2/05/16   2:05   10.2   10.3   10.2    90    8.7  15.0   SSW   1.25  19.0   SSW    6.4   10.4    6.6  1024.5  0.00  0.00   0.028   0.000   22.8    39    8.1   22.1   7.59  .0745    116    1    100.0    5 
 2/05/16   2:10   10.2   10.3   10.2    90    8.7  16.0   SSW   1.33  21.0   SSW    6.3   10.4    6.4  1024.5  0.00  0.00   0.028   0.000   22.8    39    8.1   22.0   7.59  .0745    118    1    100.0    5 
 2/05/16   2:15   10.2   10.2   10.2    91    8.8  17.0   SSW   1.42  21.0   SSW    6.1   10.4    6.3  1024.4  0.00  0.00   0.028   0.000   22.7    39    8.0   21.9   7.59  .0745    117    1    100.0    5 
65510